sensor_id;sensor_type;location;lat;lon;timestamp;pressure;altitude;pressure_sealevel;temperature;humidity
11268;BME280;49397;47.474;9.416;2022-12-18T00:00:47;96319.31;;;-1.98;99.49
11268;BME280;49397;47.474;9.416;2022-12-18T00:03:14;96318.69;;;-1.94;99.01
11268;BME280;49397;47.474;9.416;2022-12-18T00:05:49;96322.63;;;-2.09;99.30
11268;BME280;49397;47.474;9.416;2022-12-18T00:08:15;96328.94;;;-2.04;99.02
11268;BME280;49397;47.474;9.416;2022-12-18T00:10:41;96329.56;;;-2.02;98.84
11268;BME280;49397;47.474;9.416;2022-12-18T00:13:07;96330.22;;;-2.13;99.24
11268;BME280;49397;47.474;9.416;2022-12-18T00:15:36;96343.91;;;-2.09;98.71
11268;BME280;49397;47.474;9.416;2022-12-18T00:18:02;96342.44;;;-2.05;98.47
11268;BME280;49397;47.474;9.416;2022-12-18T00:20:27;96326.78;;;-2.26;98.21
11268;BME280;49397;47.474;9.416;2022-12-18T00:22:54;96349.66;;;-2.12;98.98
11268;BME280;49397;47.474;9.416;2022-12-18T00:25:20;96339.03;;;-2.25;97.64
11268;BME280;49397;47.474;9.416;2022-12-18T00:27:45;96342.34;;;-2.30;98.39
11268;BME280;49397;47.474;9.416;2022-12-18T00:30:11;96342.16;;;-2.41;98.67
11268;BME280;49397;47.474;9.416;2022-12-18T00:32:37;96350.50;;;-2.31;99.31
11268;BME280;49397;47.474;9.416;2022-12-18T00:35:03;96351.28;;;-2.24;99.17
11268;BME280;49397;47.474;9.416;2022-12-18T00:37:29;96356.47;;;-2.36;98.44
11268;BME280;49397;47.474;9.416;2022-12-18T00:39:54;96353.78;;;-2.29;97.75
11268;BME280;49397;47.474;9.416;2022-12-18T00:42:20;96351.31;;;-2.31;98.35
11268;BME280;49397;47.474;9.416;2022-12-18T00:45:04;96346.63;;;-2.35;98.94
11268;BME280;49397;47.474;9.416;2022-12-18T00:47:30;96364.44;;;-2.36;99.33
11268;BME280;49397;47.474;9.416;2022-12-18T00:49:55;96365.25;;;-2.42;99.84
11268;BME280;49397;47.474;9.416;2022-12-18T00:52:21;96369.34;;;-2.39;98.79
11268;BME280;49397;47.474;9.416;2022-12-18T00:54:46;96370.13;;;-2.32;98.79
11268;BME280;49397;47.474;9.416;2022-12-18T00:57:12;96364.16;;;-2.21;99.17
11268;BME280;49397;47.474;9.416;2022-12-18T00:59:37;96357.47;;;-2.37;98.53
11268;BME280;49397;47.474;9.416;2022-12-18T01:02:03;96375.22;;;-2.31;98.75
11268;BME280;49397;47.474;9.416;2022-12-18T01:04:31;96366.25;;;-2.30;99.66
11268;BME280;49397;47.474;9.416;2022-12-18T01:06:56;96353.81;;;-2.36;99.32
11268;BME280;49397;47.474;9.416;2022-12-18T01:09:22;96365.84;;;-2.27;99.06
11268;BME280;49397;47.474;9.416;2022-12-18T01:11:47;96366.66;;;-2.26;98.73
11268;BME280;49397;47.474;9.416;2022-12-18T01:14:13;96358.09;;;-2.41;98.86
11268;BME280;49397;47.474;9.416;2022-12-18T01:16:38;96357.66;;;-2.32;99.20
11268;BME280;49397;47.474;9.416;2022-12-18T01:19:04;96367.06;;;-2.29;99.04
11268;BME280;49397;47.474;9.416;2022-12-18T01:21:29;96380.31;;;-2.23;98.60
11268;BME280;49397;47.474;9.416;2022-12-18T01:23:56;96379.31;;;-2.22;99.32
11268;BME280;49397;47.474;9.416;2022-12-18T01:26:23;96389.34;;;-2.30;99.39
11268;BME280;49397;47.474;9.416;2022-12-18T01:28:49;96385.25;;;-2.20;99.49
11268;BME280;49397;47.474;9.416;2022-12-18T01:31:18;96393.66;;;-2.29;98.70
11268;BME280;49397;47.474;9.416;2022-12-18T01:33:44;96401.97;;;-2.13;99.11
11268;BME280;49397;47.474;9.416;2022-12-18T01:36:37;96393.16;;;-2.07;98.09
11268;BME280;49397;47.474;9.416;2022-12-18T01:39:12;96394.00;;;-2.19;98.65
11268;BME280;49397;47.474;9.416;2022-12-18T01:41:38;96396.03;;;-2.08;98.80
11268;BME280;49397;47.474;9.416;2022-12-18T01:45:02;96399.13;;;-2.11;99.01
11268;BME280;49397;47.474;9.416;2022-12-18T01:49:56;96405.03;;;-2.09;99.14
11268;BME280;49397;47.474;9.416;2022-12-18T01:52:24;96407.91;;;-2.04;98.26
11268;BME280;49397;47.474;9.416;2022-12-18T01:54:51;96411.13;;;-1.96;98.46
11268;BME280;49397;47.474;9.416;2022-12-18T01:57:18;96416.47;;;-2.02;97.82
11268;BME280;49397;47.474;9.416;2022-12-18T01:59:48;96403.78;;;-2.07;98.51
11268;BME280;49397;47.474;9.416;2022-12-18T02:02:16;96392.94;;;-2.05;98.16
11268;BME280;49397;47.474;9.416;2022-12-18T02:04:43;96392.16;;;-2.06;97.77
11268;BME280;49397;47.474;9.416;2022-12-18T02:10:03;96390.50;;;-2.07;97.44
11268;BME280;49397;47.474;9.416;2022-12-18T02:13:00;96378.22;;;-2.01;97.49
11268;BME280;49397;47.474;9.416;2022-12-18T02:15:40;96379.69;;;-2.12;97.48
11268;BME280;49397;47.474;9.416;2022-12-18T02:18:17;96390.31;;;-2.12;97.79
11268;BME280;49397;47.474;9.416;2022-12-18T02:26:50;96390.34;;;-2.18;99.02
11268;BME280;49397;47.474;9.416;2022-12-18T02:29:26;96398.50;;;-2.13;98.30
11268;BME280;49397;47.474;9.416;2022-12-18T02:31:56;96401.38;;;-2.21;98.75
11268;BME280;49397;47.474;9.416;2022-12-18T02:34:26;96410.41;;;-2.35;98.80
11268;BME280;49397;47.474;9.416;2022-12-18T02:36:54;96392.63;;;-2.35;98.92
11268;BME280;49397;47.474;9.416;2022-12-18T02:39:21;96398.53;;;-2.20;98.51
11268;BME280;49397;47.474;9.416;2022-12-18T02:41:47;96395.25;;;-2.15;98.03
11268;BME280;49397;47.474;9.416;2022-12-18T02:44:13;96393.59;;;-2.16;98.28
11268;BME280;49397;47.474;9.416;2022-12-18T02:46:42;96398.34;;;-2.18;97.50
11268;BME280;49397;47.474;9.416;2022-12-18T02:52:18;96404.66;;;-2.32;98.38
11268;BME280;49397;47.474;9.416;2022-12-18T02:57:56;96390.81;;;-2.41;98.26
11268;BME280;49397;47.474;9.416;2022-12-18T03:00:23;96401.84;;;-2.37;97.71
11268;BME280;49397;47.474;9.416;2022-12-18T03:03:02;96403.66;;;-2.38;97.60
11268;BME280;49397;47.474;9.416;2022-12-18T03:05:35;96403.69;;;-2.51;99.20
11268;BME280;49397;47.474;9.416;2022-12-18T03:08:24;96405.28;;;-2.43;99.78
11268;BME280;49397;47.474;9.416;2022-12-18T03:10:58;96404.50;;;-2.44;99.08
11268;BME280;49397;47.474;9.416;2022-12-18T03:15:59;96397.94;;;-2.48;99.60
11268;BME280;49397;47.474;9.416;2022-12-18T03:18:30;96403.25;;;-2.41;99.19
11268;BME280;49397;47.474;9.416;2022-12-18T03:21:02;96396.72;;;-2.39;99.50
11268;BME280;49397;47.474;9.416;2022-12-18T03:23:33;96396.09;;;-2.28;98.40
11268;BME280;49397;47.474;9.416;2022-12-18T03:26:02;96404.91;;;-2.40;98.23
11268;BME280;49397;47.474;9.416;2022-12-18T03:28:32;96416.75;;;-2.36;99.15
11268;BME280;49397;47.474;9.416;2022-12-18T03:31:02;96413.06;;;-2.29;98.81
11268;BME280;49397;47.474;9.416;2022-12-18T03:33:36;96413.47;;;-2.32;99.50
11268;BME280;49397;47.474;9.416;2022-12-18T03:36:03;96400.16;;;-2.25;99.28
11268;BME280;49397;47.474;9.416;2022-12-18T03:38:29;96404.44;;;-2.24;99.04
11268;BME280;49397;47.474;9.416;2022-12-18T03:44:00;96412.03;;;-2.28;98.94
11268;BME280;49397;47.474;9.416;2022-12-18T03:46:33;96401.59;;;-2.23;99.19
11268;BME280;49397;47.474;9.416;2022-12-18T03:52:25;96426.97;;;-2.33;98.76
11268;BME280;49397;47.474;9.416;2022-12-18T03:54:53;96420.44;;;-2.44;98.39
11268;BME280;49397;47.474;9.416;2022-12-18T03:57:24;96424.94;;;-2.51;99.48
11268;BME280;49397;47.474;9.416;2022-12-18T03:59:56;96430.88;;;-2.49;99.37
11268;BME280;49397;47.474;9.416;2022-12-18T04:02:23;96432.91;;;-2.44;99.47
11268;BME280;49397;47.474;9.416;2022-12-18T04:04:52;96435.34;;;-2.43;98.66
11268;BME280;49397;47.474;9.416;2022-12-18T04:07:19;96437.00;;;-2.48;98.98
11268;BME280;49397;47.474;9.416;2022-12-18T04:09:48;96438.84;;;-2.55;98.37
11268;BME280;49397;47.474;9.416;2022-12-18T04:12:14;96440.88;;;-2.51;99.44
11268;BME280;49397;47.474;9.416;2022-12-18T04:14:39;96426.38;;;-2.68;100.00
11268;BME280;49397;47.474;9.416;2022-12-18T04:17:05;96435.16;;;-2.54;100.00
11268;BME280;49397;47.474;9.416;2022-12-18T04:19:30;96441.06;;;-2.52;99.68
11268;BME280;49397;47.474;9.416;2022-12-18T04:21:56;96434.75;;;-2.58;99.31
11268;BME280;49397;47.474;9.416;2022-12-18T04:24:21;96456.19;;;-2.46;99.52
11268;BME280;49397;47.474;9.416;2022-12-18T04:26:47;96442.09;;;-2.53;98.55
11268;BME280;49397;47.474;9.416;2022-12-18T04:29:12;96458.03;;;-2.34;98.66
11268;BME280;49397;47.474;9.416;2022-12-18T04:31:38;96455.56;;;-2.35;98.42
11268;BME280;49397;47.474;9.416;2022-12-18T04:34:03;96461.31;;;-2.38;98.89
11268;BME280;49397;47.474;9.416;2022-12-18T04:36:29;96457.00;;;-2.52;98.42
11268;BME280;49397;47.474;9.416;2022-12-18T04:38:55;96458.84;;;-2.40;98.85
11268;BME280;49397;47.474;9.416;2022-12-18T04:41:21;96449.66;;;-2.44;98.41
11268;BME280;49397;47.474;9.416;2022-12-18T04:43:46;96463.97;;;-2.32;98.74
11268;BME280;49397;47.474;9.416;2022-12-18T04:46:12;96461.50;;;-2.33;99.02
11268;BME280;49397;47.474;9.416;2022-12-18T04:48:37;96461.91;;;-2.43;97.54
11268;BME280;49397;47.474;9.416;2022-12-18T04:51:04;96471.94;;;-2.64;96.94
11268;BME280;49397;47.474;9.416;2022-12-18T04:53:30;96471.13;;;-2.65;97.47
11268;BME280;49397;47.474;9.416;2022-12-18T04:56:07;96472.13;;;-2.72;97.73
11268;BME280;49397;47.474;9.416;2022-12-18T04:58:34;96466.22;;;-2.68;98.49
11268;BME280;49397;47.474;9.416;2022-12-18T05:00:59;96466.41;;;-2.69;98.09
11268;BME280;49397;47.474;9.416;2022-12-18T05:03:25;96460.91;;;-2.55;98.78
11268;BME280;49397;47.474;9.416;2022-12-18T05:05:51;96459.47;;;-2.57;98.34
11268;BME280;49397;47.474;9.416;2022-12-18T05:08:17;96462.53;;;-2.67;98.59
11268;BME280;49397;47.474;9.416;2022-12-18T05:10:43;96481.53;;;-2.70;98.99
11268;BME280;49397;47.474;9.416;2022-12-18T05:13:09;96479.28;;;-2.73;99.09
11268;BME280;49397;47.474;9.416;2022-12-18T05:15:34;96484.81;;;-2.68;99.32
11268;BME280;49397;47.474;9.416;2022-12-18T05:18:00;96495.00;;;-2.71;98.16
11268;BME280;49397;47.474;9.416;2022-12-18T05:20:27;96485.81;;;-2.75;97.26
11268;BME280;49397;47.474;9.416;2022-12-18T05:22:53;96467.84;;;-2.67;98.12
11268;BME280;49397;47.474;9.416;2022-12-18T05:25:19;96477.66;;;-2.48;98.39
11268;BME280;49397;47.474;9.416;2022-12-18T05:27:45;96479.06;;;-2.71;96.99
11268;BME280;49397;47.474;9.416;2022-12-18T05:30:11;96483.56;;;-2.65;98.21
11268;BME280;49397;47.474;9.416;2022-12-18T05:32:37;96490.53;;;-2.64;97.29
11268;BME280;49397;47.474;9.416;2022-12-18T05:35:04;96482.97;;;-2.61;98.49
11268;BME280;49397;47.474;9.416;2022-12-18T05:37:31;96485.81;;;-2.56;98.03
11268;BME280;49397;47.474;9.416;2022-12-18T05:39:56;96487.06;;;-2.52;98.21
11268;BME280;49397;47.474;9.416;2022-12-18T05:42:22;96491.56;;;-2.52;97.66
11268;BME280;49397;47.474;9.416;2022-12-18T05:44:48;96492.34;;;-2.65;97.37
11268;BME280;49397;47.474;9.416;2022-12-18T05:47:13;96495.22;;;-2.73;97.02
11268;BME280;49397;47.474;9.416;2022-12-18T05:49:39;96500.97;;;-2.56;97.99
11268;BME280;49397;47.474;9.416;2022-12-18T05:52:04;96499.09;;;-2.56;97.77
11268;BME280;49397;47.474;9.416;2022-12-18T05:54:30;96493.38;;;-2.46;96.90
11268;BME280;49397;47.474;9.416;2022-12-18T05:56:56;96485.44;;;-2.59;96.96
11268;BME280;49397;47.474;9.416;2022-12-18T05:59:22;96490.75;;;-2.66;96.82
11268;BME280;49397;47.474;9.416;2022-12-18T06:01:48;96501.16;;;-2.58;97.71
11268;BME280;49397;47.474;9.416;2022-12-18T06:04:13;96510.78;;;-2.44;97.40
11268;BME280;49397;47.474;9.416;2022-12-18T06:06:39;96506.88;;;-2.54;96.66
11268;BME280;49397;47.474;9.416;2022-12-18T06:09:04;96513.44;;;-2.50;96.58
11268;BME280;49397;47.474;9.416;2022-12-18T06:11:34;96509.34;;;-2.59;95.97
11268;BME280;49397;47.474;9.416;2022-12-18T06:14:00;96489.94;;;-2.53;97.76
11268;BME280;49397;47.474;9.416;2022-12-18T06:16:27;96509.31;;;-2.46;96.72
11268;BME280;49397;47.474;9.416;2022-12-18T06:18:53;96508.31;;;-2.39;97.97
11268;BME280;49397;47.474;9.416;2022-12-18T06:21:18;96510.56;;;-2.42;96.22
11268;BME280;49397;47.474;9.416;2022-12-18T06:23:44;96498.91;;;-2.54;95.57
11268;BME280;49397;47.474;9.416;2022-12-18T06:26:11;96510.56;;;-2.42;96.75
11268;BME280;49397;47.474;9.416;2022-12-18T06:28:37;96503.81;;;-2.45;97.44
11268;BME280;49397;47.474;9.416;2022-12-18T06:31:03;96495.88;;;-2.51;96.49
11268;BME280;49397;47.474;9.416;2022-12-18T06:33:29;96501.16;;;-2.38;97.51
11268;BME280;49397;47.474;9.416;2022-12-18T06:36:04;96502.41;;;-2.34;96.35
11268;BME280;49397;47.474;9.416;2022-12-18T06:38:31;96491.31;;;-2.64;95.92
11268;BME280;49397;47.474;9.416;2022-12-18T06:40:57;96499.31;;;-2.57;97.88
11268;BME280;49397;47.474;9.416;2022-12-18T06:43:22;96503.63;;;-2.50;98.07
11268;BME280;49397;47.474;9.416;2022-12-18T06:45:48;96507.47;;;-2.65;98.07
11268;BME280;49397;47.474;9.416;2022-12-18T06:48:19;96495.84;;;-2.64;98.18
11268;BME280;49397;47.474;9.416;2022-12-18T06:50:45;96513.81;;;-2.73;98.46
11268;BME280;49397;47.474;9.416;2022-12-18T06:53:10;96500.31;;;-2.71;99.19
11268;BME280;49397;47.474;9.416;2022-12-18T06:55:36;96522.22;;;-2.56;98.64
11268;BME280;49397;47.474;9.416;2022-12-18T06:58:01;96529.56;;;-2.45;99.13
11268;BME280;49397;47.474;9.416;2022-12-18T07:00:27;96529.16;;;-2.49;98.49
11268;BME280;49397;47.474;9.416;2022-12-18T07:02:52;96527.13;;;-2.53;98.98
11268;BME280;49397;47.474;9.416;2022-12-18T07:05:18;96537.53;;;-2.52;99.32
11268;BME280;49397;47.474;9.416;2022-12-18T07:07:43;96533.03;;;-2.58;98.45
11268;BME280;49397;47.474;9.416;2022-12-18T07:10:09;96556.53;;;-2.42;98.59
11268;BME280;49397;47.474;9.416;2022-12-18T07:12:35;96556.16;;;-2.26;97.94
11268;BME280;49397;47.474;9.416;2022-12-18T07:15:01;96555.53;;;-2.21;97.16
11268;BME280;49397;47.474;9.416;2022-12-18T07:17:26;96560.47;;;-2.25;97.83
11268;BME280;49397;47.474;9.416;2022-12-18T07:19:52;96563.72;;;-2.16;97.55
11268;BME280;49397;47.474;9.416;2022-12-18T07:22:17;96564.53;;;-2.09;97.87
11268;BME280;49397;47.474;9.416;2022-12-18T07:24:43;96565.38;;;-2.09;97.12
11268;BME280;49397;47.474;9.416;2022-12-18T07:27:08;96564.09;;;-2.32;97.27
11268;BME280;49397;47.474;9.416;2022-12-18T07:29:34;96568.00;;;-2.35;98.84
11268;BME280;49397;47.474;9.416;2022-12-18T07:31:59;96574.75;;;-2.39;98.98
11268;BME280;49397;47.474;9.416;2022-12-18T07:34:25;96574.13;;;-2.41;98.49
11268;BME280;49397;47.474;9.416;2022-12-18T07:36:51;96578.22;;;-2.32;98.75
11268;BME280;49397;47.474;9.416;2022-12-18T07:39:16;96588.25;;;-2.21;98.59
11268;BME280;49397;47.474;9.416;2022-12-18T07:41:42;96577.81;;;-2.48;98.00
11268;BME280;49397;47.474;9.416;2022-12-18T07:44:12;96590.09;;;-2.28;98.09
11268;BME280;49397;47.474;9.416;2022-12-18T07:46:38;96596.22;;;-2.27;98.48
11268;BME280;49397;47.474;9.416;2022-12-18T07:49:04;96601.13;;;-2.37;98.14
11268;BME280;49397;47.474;9.416;2022-12-18T07:51:29;96604.16;;;-2.34;98.43
11268;BME280;49397;47.474;9.416;2022-12-18T07:53:56;96603.59;;;-2.29;99.08
11268;BME280;49397;47.474;9.416;2022-12-18T07:56:22;96597.88;;;-2.26;98.98
11268;BME280;49397;47.474;9.416;2022-12-18T07:58:47;96604.81;;;-2.25;98.93
11268;BME280;49397;47.474;9.416;2022-12-18T08:01:13;96600.91;;;-2.36;99.54
11268;BME280;49397;47.474;9.416;2022-12-18T08:03:40;96596.22;;;-2.27;99.93
11268;BME280;49397;47.474;9.416;2022-12-18T08:06:07;96593.16;;;-2.24;99.61
11268;BME280;49397;47.474;9.416;2022-12-18T08:08:33;96594.41;;;-2.20;99.46
11268;BME280;49397;47.474;9.416;2022-12-18T08:10:59;96595.81;;;-2.18;99.29
11268;BME280;49397;47.474;9.416;2022-12-18T08:13:26;96597.47;;;-2.23;99.45
11268;BME280;49397;47.474;9.416;2022-12-18T08:15:59;96594.59;;;-2.22;100.00
11268;BME280;49397;47.474;9.416;2022-12-18T08:18:24;96587.44;;;-2.15;99.65
11268;BME280;49397;47.474;9.416;2022-12-18T08:20:50;96591.72;;;-2.27;98.85
11268;BME280;49397;47.474;9.416;2022-12-18T08:23:16;96588.88;;;-2.19;99.65
11268;BME280;49397;47.474;9.416;2022-12-18T08:25:41;96582.94;;;-2.14;98.96
11268;BME280;49397;47.474;9.416;2022-12-18T08:28:07;96597.44;;;-2.10;98.82
11268;BME280;49397;47.474;9.416;2022-12-18T08:30:33;96586.22;;;-2.12;98.66
11268;BME280;49397;47.474;9.416;2022-12-18T08:32:58;96599.91;;;-2.02;99.30
11268;BME280;49397;47.474;9.416;2022-12-18T08:35:23;96590.72;;;-2.00;98.99
11268;BME280;49397;47.474;9.416;2022-12-18T08:37:49;96595.63;;;-2.03;98.51
11268;BME280;49397;47.474;9.416;2022-12-18T08:40:15;96590.50;;;-1.98;98.56
11268;BME280;49397;47.474;9.416;2022-12-18T08:42:41;96591.31;;;-1.85;98.55
11268;BME280;49397;47.474;9.416;2022-12-18T08:45:24;96596.84;;;-1.80;98.36
11268;BME280;49397;47.474;9.416;2022-12-18T08:47:50;96588.66;;;-1.91;97.39
11268;BME280;49397;47.474;9.416;2022-12-18T08:50:15;96601.38;;;-1.87;97.33
11268;BME280;49397;47.474;9.416;2022-12-18T08:52:41;96595.22;;;-2.00;97.50
11268;BME280;49397;47.474;9.416;2022-12-18T08:55:07;96607.47;;;-1.86;98.22
11268;BME280;49397;47.474;9.416;2022-12-18T08:57:33;96604.81;;;-1.93;98.64
11268;BME280;49397;47.474;9.416;2022-12-18T08:59:58;96608.31;;;-1.86;98.47
11268;BME280;49397;47.474;9.416;2022-12-18T09:02:24;96615.66;;;-1.81;98.25
11268;BME280;49397;47.474;9.416;2022-12-18T09:04:50;96608.31;;;-1.92;97.99
11268;BME280;49397;47.474;9.416;2022-12-18T09:07:15;96618.75;;;-1.91;96.98
11268;BME280;49397;47.474;9.416;2022-12-18T09:09:41;96626.31;;;-1.88;96.41
11268;BME280;49397;47.474;9.416;2022-12-18T09:12:06;96626.09;;;-2.12;97.51
11268;BME280;49397;47.474;9.416;2022-12-18T09:14:32;96618.72;;;-2.10;98.54
11268;BME280;49397;47.474;9.416;2022-12-18T09:16:57;96606.47;;;-1.98;97.45
11268;BME280;49397;47.474;9.416;2022-12-18T09:19:23;96608.53;;;-1.87;97.25
11268;BME280;49397;47.474;9.416;2022-12-18T09:21:48;96608.09;;;-1.97;96.21
11268;BME280;49397;47.474;9.416;2022-12-18T09:24:14;96608.31;;;-1.92;97.46
11268;BME280;49397;47.474;9.416;2022-12-18T09:26:40;96592.34;;;-1.99;97.50
11268;BME280;49397;47.474;9.416;2022-12-18T09:29:06;96604.84;;;-1.99;97.21
11268;BME280;49397;47.474;9.416;2022-12-18T09:31:33;96598.50;;;-1.85;97.85
11268;BME280;49397;47.474;9.416;2022-12-18T09:33:59;96582.53;;;-1.85;97.16
11268;BME280;49397;47.474;9.416;2022-12-18T09:36:24;96604.41;;;-1.77;96.78
11268;BME280;49397;47.474;9.416;2022-12-18T09:38:50;96602.78;;;-1.71;97.39
11268;BME280;49397;47.474;9.416;2022-12-18T09:44:03;96587.66;;;-1.84;97.44
11268;BME280;49397;47.474;9.416;2022-12-18T09:46:35;96584.94;;;-1.58;96.98
11268;BME280;49397;47.474;9.416;2022-12-18T09:49:06;96587.25;;;-1.68;96.56
11268;BME280;49397;47.474;9.416;2022-12-18T09:51:48;96597.63;;;-1.60;96.38
11268;BME280;49397;47.474;9.416;2022-12-18T09:54:23;96584.56;;;-1.68;95.83
11268;BME280;49397;47.474;9.416;2022-12-18T09:56:50;96591.72;;;-1.55;94.47
11268;BME280;49397;47.474;9.416;2022-12-18T09:59:23;96595.00;;;-1.73;95.64
11268;BME280;49397;47.474;9.416;2022-12-18T10:01:50;96592.53;;;-1.61;95.69
11268;BME280;49397;47.474;9.416;2022-12-18T10:04:15;96591.47;;;-1.47;96.02
11268;BME280;49397;47.474;9.416;2022-12-18T10:07:01;96596.78;;;-1.47;95.27
11268;BME280;49397;47.474;9.416;2022-12-18T10:09:57;96592.09;;;-1.38;96.14
11268;BME280;49397;47.474;9.416;2022-12-18T10:18:05;96599.28;;;-1.45;95.53
11268;BME280;49397;47.474;9.416;2022-12-18T10:20:55;96597.25;;;-1.57;95.62
11268;BME280;49397;47.474;9.416;2022-12-18T10:23:32;96589.50;;;-1.78;95.18
11268;BME280;49397;47.474;9.416;2022-12-18T10:26:06;96590.50;;;-2.05;96.16
11268;BME280;49397;47.474;9.416;2022-12-18T10:28:35;96598.69;;;-1.93;95.06
11268;BME280;49397;47.474;9.416;2022-12-18T10:31:01;96601.56;;;-1.95;97.00
11268;BME280;49397;47.474;9.416;2022-12-18T10:33:32;96605.25;;;-1.76;95.81
11268;BME280;49397;47.474;9.416;2022-12-18T10:35:58;96605.03;;;-1.81;95.32
11268;BME280;49397;47.474;9.416;2022-12-18T10:38:29;96611.75;;;-1.79;95.80
11268;BME280;49397;47.474;9.416;2022-12-18T10:41:00;96591.72;;;-1.68;96.09
11268;BME280;49397;47.474;9.416;2022-12-18T10:48:48;96602.78;;;-1.65;96.49
11268;BME280;49397;47.474;9.416;2022-12-18T10:51:29;96604.19;;;-1.49;95.79
11268;BME280;49397;47.474;9.416;2022-12-18T10:54:02;96611.13;;;-1.35;94.64
11268;BME280;49397;47.474;9.416;2022-12-18T10:56:30;96604.97;;;-1.29;93.55
11268;BME280;49397;47.474;9.416;2022-12-18T10:59:00;96605.38;;;-1.38;94.65
11268;BME280;49397;47.474;9.416;2022-12-18T11:01:26;96609.66;;;-1.31;94.09
11268;BME280;49397;47.474;9.416;2022-12-18T11:06:23;96609.09;;;-1.39;94.01
11268;BME280;49397;47.474;9.416;2022-12-18T11:11:26;96597.44;;;-1.58;94.19
11268;BME280;49397;47.474;9.416;2022-12-18T11:14:04;96606.03;;;-1.49;95.14
11268;BME280;49397;47.474;9.416;2022-12-18T11:16:36;96595.81;;;-1.59;94.52
11268;BME280;49397;47.474;9.416;2022-12-18T11:21:41;96608.31;;;-1.73;94.89
11268;BME280;49397;47.474;9.416;2022-12-18T11:27:17;96603.78;;;-1.66;93.77
11268;BME280;49397;47.474;9.416;2022-12-18T11:29:43;96605.84;;;-2.00;94.13
11268;BME280;49397;47.474;9.416;2022-12-18T11:32:33;96605.84;;;-1.81;94.67
11268;BME280;49397;47.474;9.416;2022-12-18T11:35:13;96592.34;;;-1.66;94.35
11268;BME280;49397;47.474;9.416;2022-12-18T11:37:43;96592.31;;;-1.53;94.49
11268;BME280;49397;47.474;9.416;2022-12-18T11:40:17;96584.34;;;-1.60;93.62
11268;BME280;49397;47.474;9.416;2022-12-18T11:45:47;96576.13;;;-1.58;93.17
11268;BME280;49397;47.474;9.416;2022-12-18T11:48:21;96578.63;;;-1.57;93.55
11268;BME280;49397;47.474;9.416;2022-12-18T11:50:49;96580.66;;;-1.59;94.50
11268;BME280;49397;47.474;9.416;2022-12-18T11:53:16;96562.47;;;-1.68;93.55
11268;BME280;49397;47.474;9.416;2022-12-18T11:56:00;96579.47;;;-1.76;94.52
11268;BME280;49397;47.474;9.416;2022-12-18T12:06:40;96561.19;;;-1.52;94.61
11268;BME280;49397;47.474;9.416;2022-12-18T12:09:26;96561.84;;;-1.64;94.30
11268;BME280;49397;47.474;9.416;2022-12-18T12:15:06;96567.16;;;-1.77;95.68
11268;BME280;49397;47.474;9.416;2022-12-18T12:17:45;96556.09;;;-1.54;95.73
11268;BME280;49397;47.474;9.416;2022-12-18T12:20:18;96564.25;;;-1.42;95.83
11268;BME280;49397;47.474;9.416;2022-12-18T12:25:48;96561.38;;;-1.41;94.36
11268;BME280;49397;47.474;9.416;2022-12-18T12:29:08;96556.63;;;-1.32;94.10
11268;BME280;49397;47.474;9.416;2022-12-18T12:39:50;96536.84;;;-1.63;95.44
11268;BME280;49397;47.474;9.416;2022-12-18T12:42:41;96525.38;;;-1.50;93.77
11268;BME280;49397;47.474;9.416;2022-12-18T12:45:46;96531.91;;;-1.39;94.86
11268;BME280;49397;47.474;9.416;2022-12-18T12:48:28;96529.88;;;-1.44;94.41
11268;BME280;49397;47.474;9.416;2022-12-18T12:50:56;96525.56;;;-1.45;94.57
11268;BME280;49397;47.474;9.416;2022-12-18T12:53:31;96515.72;;;-1.38;94.64
11268;BME280;49397;47.474;9.416;2022-12-18T12:55:59;96525.94;;;-1.28;94.54
11268;BME280;49397;47.474;9.416;2022-12-18T13:04:16;96506.41;;;-1.16;94.25
11268;BME280;49397;47.474;9.416;2022-12-18T13:06:53;96507.88;;;-1.26;94.14
11268;BME280;49397;47.474;9.416;2022-12-18T13:09:21;96510.94;;;-1.23;93.78
11268;BME280;49397;47.474;9.416;2022-12-18T13:11:47;96506.59;;;-1.11;94.12
11268;BME280;49397;47.474;9.416;2022-12-18T13:14:36;96505.03;;;-1.25;94.09
11268;BME280;49397;47.474;9.416;2022-12-18T13:22:39;96522.59;;;-1.11;94.36
11268;BME280;49397;47.474;9.416;2022-12-18T13:25:32;96529.78;;;-1.18;94.11
11268;BME280;49397;47.474;9.416;2022-12-18T13:45:48;96523.75;;;-1.58;95.79
11268;BME280;49397;47.474;9.416;2022-12-18T13:48:23;96514.50;;;-1.48;95.20
11268;BME280;49397;47.474;9.416;2022-12-18T13:51:01;96524.94;;;-1.40;94.66
11268;BME280;49397;47.474;9.416;2022-12-18T13:53:48;96537.22;;;-1.33;94.61
11268;BME280;49397;47.474;9.416;2022-12-18T13:56:16;96541.31;;;-1.43;94.78
11268;BME280;49397;47.474;9.416;2022-12-18T13:58:42;96536.81;;;-1.36;95.56
11268;BME280;49397;47.474;9.416;2022-12-18T14:01:23;96522.25;;;-1.40;94.80
11268;BME280;49397;47.474;9.416;2022-12-18T14:03:49;96536.94;;;-1.18;94.75
11268;BME280;49397;47.474;9.416;2022-12-18T14:06:14;96538.47;;;-1.48;95.14
11268;BME280;49397;47.474;9.416;2022-12-18T14:08:41;96537.03;;;-1.44;94.69
11268;BME280;49397;47.474;9.416;2022-12-18T14:11:20;96548.34;;;-1.62;95.12
11268;BME280;49397;47.474;9.416;2022-12-18T14:13:47;96545.66;;;-1.62;96.18
11268;BME280;49397;47.474;9.416;2022-12-18T14:16:14;96528.84;;;-1.49;95.82
11268;BME280;49397;47.474;9.416;2022-12-18T14:18:48;96530.31;;;-1.60;95.25
11268;BME280;49397;47.474;9.416;2022-12-18T14:21:28;96537.22;;;-1.39;95.22
11268;BME280;49397;47.474;9.416;2022-12-18T14:24:25;96549.50;;;-1.45;95.83
11268;BME280;49397;47.474;9.416;2022-12-18T14:26:50;96533.13;;;-1.42;94.57
11268;BME280;49397;47.474;9.416;2022-12-18T14:29:26;96535.63;;;-1.53;94.68
11268;BME280;49397;47.474;9.416;2022-12-18T14:32:10;96538.06;;;-1.45;94.98
11268;BME280;49397;47.474;9.416;2022-12-18T14:34:37;96540.09;;;-1.41;95.06
11268;BME280;49397;47.474;9.416;2022-12-18T14:37:03;96534.00;;;-1.61;94.81
11268;BME280;49397;47.474;9.416;2022-12-18T14:39:29;96542.19;;;-1.69;94.62
11268;BME280;49397;47.474;9.416;2022-12-18T14:41:55;96545.44;;;-1.47;95.29
11268;BME280;49397;47.474;9.416;2022-12-18T14:44:20;96541.31;;;-1.43;95.03
11268;BME280;49397;47.474;9.416;2022-12-18T14:46:48;96544.59;;;-1.41;95.14
11268;BME280;49397;47.474;9.416;2022-12-18T14:49:22;96541.72;;;-1.40;95.76
11268;BME280;49397;47.474;9.416;2022-12-18T14:51:52;96535.34;;;-1.39;95.47
11268;BME280;49397;47.474;9.416;2022-12-18T14:54:19;96528.00;;;-1.43;94.69
11268;BME280;49397;47.474;9.416;2022-12-18T14:56:47;96543.56;;;-1.47;94.28